sensor_id;sensor_type;location;lat;lon;timestamp;pressure;altitude;pressure_sealevel;temperature;humidity
48027;BME280;50714;49.208;5.364;2022-11-15T00:05:02;98918.53;;;12.02;100.00
48027;BME280;50714;49.208;5.364;2022-11-15T00:15:03;98919.34;;;12.03;100.00
48027;BME280;50714;49.208;5.364;2022-11-15T00:25:04;98919.13;;;12.04;100.00
48027;BME280;50714;49.208;5.364;2022-11-15T00:35:04;98932.38;;;12.06;100.00
48027;BME280;50714;49.208;5.364;2022-11-15T00:45:05;98924.75;;;12.03;100.00
48027;BME280;50714;49.208;5.364;2022-11-15T00:55:06;98912.50;;;12.00;100.00
48027;BME280;50714;49.208;5.364;2022-11-15T01:05:07;98922.72;;;11.98;100.00
48027;BME280;50714;49.208;5.364;2022-11-15T01:15:08;98919.63;;;11.94;99.98
48027;BME280;50714;49.208;5.364;2022-11-15T01:25:08;98913.63;;;11.92;99.78
48027;BME280;50714;49.208;5.364;2022-11-15T01:35:08;98913.25;;;11.89;99.83
48027;BME280;50714;49.208;5.364;2022-11-15T01:45:13;98904.91;;;11.90;99.46
48027;BME280;50714;49.208;5.364;2022-11-15T01:55:20;98911.22;;;11.84;98.76
48027;BME280;50714;49.208;5.364;2022-11-15T02:05:21;98900.72;;;11.76;98.15
48027;BME280;50714;49.208;5.364;2022-11-15T02:15:24;98891.44;;;11.66;98.07
48027;BME280;50714;49.208;5.364;2022-11-15T02:45:50;98856.53;;;11.46;97.07
48027;BME280;50714;49.208;5.364;2022-11-15T02:55:53;98853.50;;;11.36;96.87
48027;BME280;50714;49.208;5.364;2022-11-15T03:06:20;98855.69;;;11.27;97.55
48027;BME280;50714;49.208;5.364;2022-11-15T03:16:30;98848.31;;;11.16;97.40
48027;BME280;50714;49.208;5.364;2022-11-15T03:26:35;98848.69;;;11.01;96.54
48027;BME280;50714;49.208;5.364;2022-11-15T03:36:38;98843.03;;;10.84;95.48
48027;BME280;50714;49.208;5.364;2022-11-15T03:47:03;98849.78;;;10.69;95.78
48027;BME280;50714;49.208;5.364;2022-11-15T03:57:06;98858.09;;;10.67;95.41
48027;BME280;50714;49.208;5.364;2022-11-15T04:07:07;98856.41;;;10.73;95.60
48027;BME280;50714;49.208;5.364;2022-11-15T04:17:07;98852.59;;;10.80;95.01
48027;BME280;50714;49.208;5.364;2022-11-15T04:27:07;98844.28;;;10.82;93.77
48027;BME280;50714;49.208;5.364;2022-11-15T04:37:07;98846.16;;;10.81;92.81
48027;BME280;50714;49.208;5.364;2022-11-15T04:47:15;98854.25;;;10.81;93.22
48027;BME280;50714;49.208;5.364;2022-11-15T04:57:15;98839.34;;;10.79;92.26
48027;BME280;50714;49.208;5.364;2022-11-15T05:07:16;98830.56;;;10.58;92.49
48027;BME280;50714;49.208;5.364;2022-11-15T05:17:16;98819.69;;;10.40;92.40
48027;BME280;50714;49.208;5.364;2022-11-15T05:27:17;98829.94;;;10.32;92.06
48027;BME280;50714;49.208;5.364;2022-11-15T05:37:18;98816.13;;;10.15;92.51
48027;BME280;50714;49.208;5.364;2022-11-15T05:47:22;98805.19;;;10.03;92.44
48027;BME280;50714;49.208;5.364;2022-11-15T05:57:24;98803.25;;;9.79;92.64
48027;BME280;50714;49.208;5.364;2022-11-15T06:07:25;98795.25;;;9.66;92.39
48027;BME280;50714;49.208;5.364;2022-11-15T06:17:25;98805.44;;;9.57;92.24
48027;BME280;50714;49.208;5.364;2022-11-15T06:27:25;98813.56;;;9.44;91.47
48027;BME280;50714;49.208;5.364;2022-11-15T06:37:26;98799.31;;;9.30;91.59
48027;BME280;50714;49.208;5.364;2022-11-15T06:47:26;98801.63;;;9.20;91.47
48027;BME280;50714;49.208;5.364;2022-11-15T06:57:27;98799.16;;;9.18;91.74
48027;BME280;50714;49.208;5.364;2022-11-15T07:07:27;98804.50;;;9.25;91.81
48027;BME280;50714;49.208;5.364;2022-11-15T07:17:27;98799.72;;;9.34;92.39
48027;BME280;50714;49.208;5.364;2022-11-15T07:27:28;98793.03;;;9.49;92.84
48027;BME280;50714;49.208;5.364;2022-11-15T07:37:28;98787.00;;;9.54;91.48
48027;BME280;50714;49.208;5.364;2022-11-15T07:47:29;98795.41;;;9.71;91.64
48027;BME280;50714;49.208;5.364;2022-11-15T07:57:29;98798.66;;;9.86;92.29
48027;BME280;50714;49.208;5.364;2022-11-15T08:07:30;98795.69;;;9.94;91.59
48027;BME280;50714;49.208;5.364;2022-11-15T08:17:30;98766.75;;;10.14;91.80
48027;BME280;50714;49.208;5.364;2022-11-15T08:27:32;98740.75;;;10.51;90.76
48027;BME280;50714;49.208;5.364;2022-11-15T08:37:33;98735.41;;;10.88;90.45
48027;BME280;50714;49.208;5.364;2022-11-15T08:47:34;98727.84;;;10.97;90.78
48027;BME280;50714;49.208;5.364;2022-11-15T08:57:34;98737.88;;;11.92;91.21
48027;BME280;50714;49.208;5.364;2022-11-15T09:07:34;98713.69;;;11.98;87.94
48027;BME280;50714;49.208;5.364;2022-11-15T09:17:35;98696.09;;;12.53;88.40
48027;BME280;50714;49.208;5.364;2022-11-15T09:27:36;98694.53;;;13.16;86.41
48027;BME280;50714;49.208;5.364;2022-11-15T09:37:36;98688.59;;;13.59;84.07
48027;BME280;50714;49.208;5.364;2022-11-15T09:57:53;98676.91;;;14.71;79.40
48027;BME280;50714;49.208;5.364;2022-11-15T10:08:05;98678.38;;;13.94;79.22
48027;BME280;50714;49.208;5.364;2022-11-15T10:18:30;98656.63;;;13.44;80.46
48027;BME280;50714;49.208;5.364;2022-11-15T10:28:35;98647.88;;;13.02;81.70
48027;BME280;50714;49.208;5.364;2022-11-15T10:48:48;98599.22;;;13.07;83.96
48027;BME280;50714;49.208;5.364;2022-11-15T10:58:54;98560.88;;;13.89;81.53
48027;BME280;50714;49.208;5.364;2022-11-15T11:08:58;98540.38;;;14.15;81.63
48027;BME280;50714;49.208;5.364;2022-11-15T11:29:55;98506.66;;;14.11;79.52
48027;BME280;50714;49.208;5.364;2022-11-15T11:50:21;98452.63;;;15.01;77.83
48027;BME280;50714;49.208;5.364;2022-11-15T12:00:25;98438.16;;;15.60;76.57
48027;BME280;50714;49.208;5.364;2022-11-15T12:10:32;98406.13;;;15.67;72.48
48027;BME280;50714;49.208;5.364;2022-11-15T12:20:37;98379.38;;;15.54;75.00
48027;BME280;50714;49.208;5.364;2022-11-15T12:30:50;98356.88;;;15.58;70.16
48027;BME280;50714;49.208;5.364;2022-11-15T12:41:32;98338.44;;;15.71;72.89
48027;BME280;50714;49.208;5.364;2022-11-15T13:11:48;98284.72;;;15.51;73.79
48027;BME280;50714;49.208;5.364;2022-11-15T13:21:49;98268.72;;;15.54;74.49
48027;BME280;50714;49.208;5.364;2022-11-15T13:32:12;98250.59;;;15.23;73.99
48027;BME280;50714;49.208;5.364;2022-11-15T13:42:18;98232.00;;;14.99;75.37
48027;BME280;50714;49.208;5.364;2022-11-15T13:52:20;98227.78;;;14.77;75.69
48027;BME280;50714;49.208;5.364;2022-11-15T14:02:26;98225.78;;;14.67;76.40
48027;BME280;50714;49.208;5.364;2022-11-15T14:12:34;98220.88;;;14.59;77.27
48027;BME280;50714;49.208;5.364;2022-11-15T14:22:35;98224.91;;;14.56;79.63
48027;BME280;50714;49.208;5.364;2022-11-15T14:32:49;98202.53;;;14.44;80.55
48027;BME280;50714;49.208;5.364;2022-11-15T14:42:50;98205.41;;;14.32;80.79
48027;BME280;50714;49.208;5.364;2022-11-15T14:52:50;98197.94;;;14.18;82.25
48027;BME280;50714;49.208;5.364;2022-11-15T15:02:53;98206.56;;;14.10;82.97
48027;BME280;50714;49.208;5.364;2022-11-15T15:12:53;98182.63;;;14.02;83.17
48027;BME280;50714;49.208;5.364;2022-11-15T15:22:54;98170.91;;;13.96;83.53
48027;BME280;50714;49.208;5.364;2022-11-15T15:32:55;98153.47;;;13.87;84.38
48027;BME280;50714;49.208;5.364;2022-11-15T15:42:55;98146.88;;;13.78;84.85
48027;BME280;50714;49.208;5.364;2022-11-15T15:52:57;98131.63;;;13.72;84.68
48027;BME280;50714;49.208;5.364;2022-11-15T16:02:58;98146.22;;;13.65;85.34
48027;BME280;50714;49.208;5.364;2022-11-15T16:12:59;98148.31;;;13.58;86.37
48027;BME280;50714;49.208;5.364;2022-11-15T16:23:00;98137.31;;;13.43;88.40
48027;BME280;50714;49.208;5.364;2022-11-15T16:33:01;98127.69;;;13.30;90.02
48027;BME280;50714;49.208;5.364;2022-11-15T16:43:01;98109.59;;;13.14;92.25
48027;BME280;50714;49.208;5.364;2022-11-15T16:53:03;98099.13;;;13.01;93.29
48027;BME280;50714;49.208;5.364;2022-11-15T17:03:03;98085.81;;;12.94;94.60
48027;BME280;50714;49.208;5.364;2022-11-15T17:13:04;98092.78;;;12.90;95.21
48027;BME280;50714;49.208;5.364;2022-11-15T17:23:04;98077.94;;;12.93;94.85
48027;BME280;50714;49.208;5.364;2022-11-15T17:33:11;98072.59;;;12.98;94.91
48027;BME280;50714;49.208;5.364;2022-11-15T17:43:11;98074.72;;;12.96;95.75
48027;BME280;50714;49.208;5.364;2022-11-15T17:53:12;98069.44;;;12.84;97.06
48027;BME280;50714;49.208;5.364;2022-11-15T18:03:13;98064.09;;;12.89;96.91
48027;BME280;50714;49.208;5.364;2022-11-15T18:13:13;98057.84;;;12.89;97.07
48027;BME280;50714;49.208;5.364;2022-11-15T18:23:15;98055.97;;;12.89;96.86
48027;BME280;50714;49.208;5.364;2022-11-15T18:33:15;98054.88;;;12.90;97.28
48027;BME280;50714;49.208;5.364;2022-11-15T18:43:15;98047.28;;;12.87;97.59
48027;BME280;50714;49.208;5.364;2022-11-15T18:53:16;98035.06;;;12.85;98.20
48027;BME280;50714;49.208;5.364;2022-11-15T19:03:16;98019.88;;;12.84;98.48
48027;BME280;50714;49.208;5.364;2022-11-15T19:13:17;97997.91;;;12.80;98.64
48027;BME280;50714;49.208;5.364;2022-11-15T19:23:17;97977.63;;;12.83;98.49
48027;BME280;50714;49.208;5.364;2022-11-15T19:33:18;97972.22;;;12.83;98.32
48027;BME280;50714;49.208;5.364;2022-11-15T19:43:19;97958.69;;;12.83;99.07
48027;BME280;50714;49.208;5.364;2022-11-15T19:53:19;97959.97;;;12.75;98.87
48027;BME280;50714;49.208;5.364;2022-11-15T20:03:19;97958.38;;;12.79;99.13
48027;BME280;50714;49.208;5.364;2022-11-15T20:13:20;97948.66;;;12.83;99.53
48027;BME280;50714;49.208;5.364;2022-11-15T20:23:20;97947.34;;;12.86;99.39
48027;BME280;50714;49.208;5.364;2022-11-15T20:33:21;97936.56;;;12.91;99.57
48027;BME280;50714;49.208;5.364;2022-11-15T20:43:22;97934.44;;;12.93;99.69
48027;BME280;50714;49.208;5.364;2022-11-15T20:53:22;97915.78;;;12.96;99.57
48027;BME280;50714;49.208;5.364;2022-11-15T21:03:23;97915.25;;;12.99;99.52
48027;BME280;50714;49.208;5.364;2022-11-15T21:13:23;97923.41;;;13.05;99.37
48027;BME280;50714;49.208;5.364;2022-11-15T21:23:24;97912.59;;;13.05;99.32
48027;BME280;50714;49.208;5.364;2022-11-15T21:33:25;97915.53;;;13.03;99.54
48027;BME280;50714;49.208;5.364;2022-11-15T21:43:26;97915.81;;;13.02;99.71
48027;BME280;50714;49.208;5.364;2022-11-15T21:53:27;97905.03;;;13.07;99.80
48027;BME280;50714;49.208;5.364;2022-11-15T22:03:28;97900.69;;;13.06;99.59
48027;BME280;50714;49.208;5.364;2022-11-15T22:13:29;97893.13;;;13.08;100.00
48027;BME280;50714;49.208;5.364;2022-11-15T22:23:31;97895.56;;;13.09;100.00
48027;BME280;50714;49.208;5.364;2022-11-15T22:33:32;97904.81;;;13.13;100.00
48027;BME280;50714;49.208;5.364;2022-11-15T22:43:33;97888.00;;;13.11;99.67
48027;BME280;50714;49.208;5.364;2022-11-15T22:53:34;97908.84;;;13.11;99.79
48027;BME280;50714;49.208;5.364;2022-11-15T23:03:34;97907.78;;;13.12;99.27
48027;BME280;50714;49.208;5.364;2022-11-15T23:13:34;97904.00;;;13.13;99.14
48027;BME280;50714;49.208;5.364;2022-11-15T23:23:35;97865.22;;;13.07;98.38
48027;BME280;50714;49.208;5.364;2022-11-15T23:33:36;97884.13;;;13.02;97.92
48027;BME280;50714;49.208;5.364;2022-11-15T23:43:55;97879.47;;;12.92;96.51
48027;BME280;50714;49.208;5.364;2022-11-15T23:53:56;97874.50;;;12.84;96.62
